createdAt,value
2018-07-07T00:00:30.486Z,0.00
2018-07-07T00:01:30.479Z,0.00
2018-07-07T00:02:30.466Z,0.00
2018-07-07T00:03:30.456Z,0.00
2018-07-07T00:04:30.436Z,0.00
2018-07-07T00:05:30.427Z,0.00
2018-07-07T00:06:30.417Z,0.00
2018-07-07T00:07:30.408Z,0.00
2018-07-07T00:08:30.385Z,0.00
2018-07-07T00:09:30.379Z,0.00
2018-07-07T00:10:30.361Z,0.00
2018-07-07T00:11:30.357Z,0.00
2018-07-07T00:12:30.345Z,0.00
2018-07-07T00:13:30.326Z,0.00
2018-07-07T00:14:30.312Z,0.00
2018-07-07T00:15:30.305Z,0.00
2018-07-07T00:16:30.299Z,0.00
2018-07-07T00:17:30.280Z,0.00
2018-07-07T00:18:30.269Z,0.00
2018-07-07T00:19:30.251Z,0.00
2018-07-07T00:20:30.238Z,0.00
2018-07-07T00:21:30.225Z,0.00
2018-07-07T00:22:30.281Z,0.00
2018-07-07T00:23:30.203Z,0.00
2018-07-07T00:24:30.186Z,0.00
2018-07-07T00:25:30.176Z,0.00
2018-07-07T00:26:30.164Z,0.00
2018-07-07T00:27:30.157Z,0.00
2018-07-07T00:28:30.146Z,0.00
2018-07-07T00:29:30.125Z,0.00
2018-07-07T00:30:30.118Z,0.00
2018-07-07T00:31:30.100Z,0.00
2018-07-07T00:32:30.085Z,0.00
2018-07-07T00:33:30.074Z,0.00
2018-07-07T00:34:30.076Z,0.00
2018-07-07T00:35:30.057Z,0.00
2018-07-07T00:36:30.037Z,0.00
2018-07-07T00:37:30.026Z,0.00
2018-07-07T00:38:30.017Z,0.00
2018-07-07T00:39:29.997Z,0.00
2018-07-07T00:40:29.986Z,0.00
2018-07-07T00:41:29.975Z,0.00
2018-07-07T00:42:29.966Z,0.00
2018-07-07T00:43:29.957Z,0.00
2018-07-07T00:44:29.934Z,0.00
2018-07-07T00:45:29.927Z,0.00
2018-07-07T00:46:29.915Z,0.00
2018-07-07T00:47:29.902Z,0.00
2018-07-07T00:48:29.886Z,0.00
2018-07-07T00:49:29.874Z,0.00
2018-07-07T00:50:29.862Z,0.00
2018-07-07T00:51:29.850Z,0.00
2018-07-07T00:52:29.836Z,0.00
2018-07-07T00:53:29.828Z,0.00
2018-07-07T00:54:29.886Z,0.00
2018-07-07T00:55:29.797Z,0.00
2018-07-07T00:56:29.790Z,0.00
2018-07-07T00:57:29.778Z,0.00
2018-07-07T00:58:29.760Z,0.00
2018-07-07T00:59:29.750Z,0.00
2018-07-07T01:00:29.737Z,0.00
2018-07-07T01:01:29.719Z,0.00
2018-07-07T01:02:29.707Z,0.00
2018-07-07T01:03:29.697Z,0.00
2018-07-07T01:04:29.686Z,0.00
2018-07-07T01:05:29.670Z,0.00
2018-07-07T01:06:29.658Z,0.00
2018-07-07T01:07:29.646Z,0.00
2018-07-07T01:08:29.636Z,0.00
2018-07-07T01:09:29.706Z,0.00
2018-07-07T01:10:29.607Z,0.00
2018-07-07T01:11:29.592Z,0.00
2018-07-07T01:12:29.585Z,0.00
2018-07-07T01:13:29.566Z,0.00
2018-07-07T01:14:29.553Z,0.00
2018-07-07T01:15:29.559Z,0.00
2018-07-07T01:16:29.533Z,0.00
2018-07-07T01:17:29.517Z,0.00
2018-07-07T01:18:29.505Z,0.00
2018-07-07T01:19:29.492Z,0.00
2018-07-07T01:20:29.489Z,0.00
2018-07-07T01:21:29.467Z,0.00
2018-07-07T01:22:29.451Z,0.00
2018-07-07T01:23:29.436Z,0.00
2018-07-07T01:24:29.426Z,0.00
2018-07-07T01:25:29.415Z,0.00
2018-07-07T01:26:29.398Z,0.00
2018-07-07T01:27:29.385Z,0.00
2018-07-07T01:28:29.371Z,0.00
2018-07-07T01:29:29.361Z,0.00
2018-07-07T01:30:29.356Z,0.00
2018-07-07T01:31:29.336Z,0.00
2018-07-07T01:32:29.320Z,0.00
2018-07-07T01:33:29.305Z,0.00
2018-07-07T01:34:29.308Z,0.00
2018-07-07T01:35:29.286Z,0.00
2018-07-07T01:36:29.276Z,0.00
2018-07-07T01:37:29.255Z,0.00
2018-07-07T01:38:29.246Z,0.00
2018-07-07T01:39:29.238Z,0.00
2018-07-07T01:40:29.226Z,0.00
2018-07-07T01:41:29.207Z,0.00
2018-07-07T01:42:29.197Z,0.00
2018-07-07T01:43:29.187Z,0.00
2018-07-07T01:44:29.167Z,0.00
2018-07-07T01:45:29.152Z,0.00
2018-07-07T01:46:29.140Z,0.00
2018-07-07T01:47:29.127Z,0.00
2018-07-07T01:48:29.114Z,0.00
2018-07-07T01:49:29.104Z,0.00
2018-07-07T01:50:29.096Z,0.00
2018-07-07T01:51:29.077Z,0.00
2018-07-07T01:52:29.068Z,0.00
2018-07-07T01:53:29.053Z,0.00
2018-07-07T01:54:29.037Z,0.00
2018-07-07T01:55:29.028Z,0.00
2018-07-07T01:56:29.017Z,0.00
2018-07-07T01:57:28.995Z,0.00
2018-07-07T01:58:28.986Z,0.00
2018-07-07T01:59:28.975Z,0.00
2018-07-07T02:00:28.984Z,0.00
2018-07-07T02:01:28.946Z,0.00
2018-07-07T02:02:28.936Z,0.00
2018-07-07T02:03:28.929Z,0.00
2018-07-07T02:04:28.906Z,0.00
2018-07-07T02:05:28.899Z,0.00
2018-07-07T02:06:28.885Z,0.00
2018-07-07T02:07:28.924Z,0.00
2018-07-07T02:08:28.857Z,0.00
2018-07-07T02:09:28.840Z,0.00
2018-07-07T02:10:28.852Z,0.00
2018-07-07T02:11:28.966Z,0.00
2018-07-07T02:12:28.799Z,0.00
2018-07-07T02:13:28.877Z,0.00
2018-07-07T02:14:28.775Z,0.00
2018-07-07T02:15:28.767Z,0.00
2018-07-07T02:16:28.757Z,0.00
2018-07-07T02:17:28.743Z,0.00
2018-07-07T02:18:28.727Z,0.00
2018-07-07T02:19:28.710Z,0.00
2018-07-07T02:20:28.695Z,0.00
2018-07-07T02:21:28.686Z,0.00
2018-07-07T02:22:28.672Z,0.00
2018-07-07T02:23:28.661Z,0.00
2018-07-07T02:24:28.647Z,0.00
2018-07-07T02:25:28.634Z,0.00
2018-07-07T02:26:28.616Z,0.00
2018-07-07T02:27:28.607Z,0.00
2018-07-07T02:28:28.595Z,0.00
2018-07-07T02:29:28.581Z,0.00
2018-07-07T02:30:28.566Z,0.00
2018-07-07T02:31:28.556Z,0.00
2018-07-07T02:32:28.547Z,0.00
2018-07-07T02:33:28.525Z,0.00
2018-07-07T02:34:28.517Z,0.00
2018-07-07T02:35:28.500Z,0.00
2018-07-07T02:36:28.488Z,0.00
2018-07-07T02:37:28.474Z,0.00
2018-07-07T02:38:28.464Z,0.00
2018-07-07T02:39:28.447Z,0.00
2018-07-07T02:40:28.436Z,0.00
2018-07-07T02:41:28.431Z,0.00
2018-07-07T02:42:28.407Z,0.00
2018-07-07T02:43:28.397Z,0.00
2018-07-07T02:44:28.381Z,0.00
2018-07-07T02:45:28.368Z,0.00
2018-07-07T02:46:28.361Z,0.00
2018-07-07T02:47:28.345Z,0.00
2018-07-07T02:48:28.328Z,0.00
2018-07-07T02:49:28.317Z,0.00
2018-07-07T02:50:28.305Z,0.00
2018-07-07T02:51:28.292Z,0.00
2018-07-07T02:52:28.284Z,0.00
2018-07-07T02:53:28.266Z,0.00
2018-07-07T02:54:28.255Z,4.00
2018-07-07T02:55:28.238Z,0.00
2018-07-07T02:56:28.225Z,0.00
2018-07-07T02:57:28.208Z,0.00
2018-07-07T02:58:28.197Z,4.00
2018-07-07T02:59:28.186Z,4.00
2018-07-07T03:00:28.177Z,0.00
2018-07-07T03:01:28.160Z,4.00
2018-07-07T03:02:28.147Z,4.00
2018-07-07T03:03:28.143Z,4.00
2018-07-07T03:04:28.117Z,4.00
2018-07-07T03:05:28.106Z,4.00
2018-07-07T03:06:28.099Z,4.00
2018-07-07T03:07:28.080Z,4.00
2018-07-07T03:08:28.068Z,4.00
2018-07-07T03:09:28.058Z,8.00
2018-07-07T03:10:28.044Z,8.00
2018-07-07T03:11:28.029Z,8.00
2018-07-07T03:12:28.011Z,8.00
2018-07-07T03:13:28.003Z,8.00
2018-07-07T03:14:27.984Z,8.00
2018-07-07T03:15:27.973Z,8.00
2018-07-07T03:16:27.957Z,8.00
2018-07-07T03:17:27.992Z,12.00
2018-07-07T03:18:27.930Z,16.00
2018-07-07T03:19:27.915Z,16.00
2018-07-07T03:20:27.905Z,16.00
2018-07-07T03:21:27.898Z,16.00
2018-07-07T03:22:27.883Z,20.00
2018-07-07T03:23:27.866Z,20.00
2018-07-07T03:24:27.855Z,20.00
2018-07-07T03:25:27.835Z,24.00
2018-07-07T03:26:27.830Z,24.00
2018-07-07T03:27:27.813Z,20.00
2018-07-07T03:28:27.966Z,28.00
2018-07-07T03:29:27.787Z,28.00
2018-07-07T03:30:27.778Z,28.00
2018-07-07T03:31:27.757Z,32.00
2018-07-07T03:32:27.746Z,32.00
2018-07-07T03:33:27.737Z,32.00
2018-07-07T03:34:27.717Z,32.00
2018-07-07T03:35:27.707Z,36.00
2018-07-07T03:36:27.740Z,40.00
2018-07-07T03:37:27.676Z,40.00
2018-07-07T03:38:27.717Z,44.00
2018-07-07T03:39:27.646Z,44.00
2018-07-07T03:40:27.636Z,44.00
2018-07-07T03:41:27.627Z,44.00
2018-07-07T03:42:27.756Z,48.00
2018-07-07T03:43:27.593Z,48.00
2018-07-07T03:44:27.636Z,52.00
2018-07-07T03:45:27.567Z,48.00
2018-07-07T03:46:27.656Z,52.00
2018-07-07T03:47:27.549Z,56.00
2018-07-07T03:48:27.526Z,56.00
2018-07-07T03:49:27.607Z,56.00
2018-07-07T03:50:27.518Z,60.00
2018-07-07T03:51:27.500Z,60.00
2018-07-07T03:52:27.520Z,64.00
2018-07-07T03:53:27.469Z,64.00
2018-07-07T03:54:27.495Z,64.00
2018-07-07T03:55:27.437Z,68.00
2018-07-07T03:56:27.492Z,68.00
2018-07-07T03:57:27.411Z,72.00
2018-07-07T03:58:27.396Z,76.00
2018-07-07T03:59:27.378Z,80.00
2018-07-07T04:00:27.369Z,84.00
2018-07-07T04:01:27.353Z,88.00
2018-07-07T04:02:27.338Z,92.00
2018-07-07T04:03:27.325Z,96.00
2018-07-07T04:04:27.311Z,100.00
2018-07-07T04:05:27.298Z,100.00
2018-07-07T04:06:27.289Z,104.00
2018-07-07T04:07:27.320Z,108.00
2018-07-07T04:08:27.256Z,112.00
2018-07-07T04:09:27.244Z,116.00
2018-07-07T04:10:27.229Z,116.00
2018-07-07T04:11:27.224Z,120.00
2018-07-07T04:12:27.207Z,120.00
2018-07-07T04:13:27.188Z,128.00
2018-07-07T04:14:27.174Z,128.00
2018-07-07T04:15:27.161Z,128.00
2018-07-07T04:16:27.148Z,132.00
2018-07-07T04:17:27.137Z,132.00
2018-07-07T04:18:27.117Z,136.00
2018-07-07T04:19:27.104Z,136.00
2018-07-07T04:20:27.098Z,140.00
2018-07-07T04:21:27.089Z,140.00
2018-07-07T04:22:27.064Z,144.00
2018-07-07T04:23:27.049Z,152.00
2018-07-07T04:24:27.041Z,156.00
2018-07-07T04:25:27.025Z,160.00
2018-07-07T04:26:27.012Z,164.00
2018-07-07T04:27:26.998Z,168.00
2018-07-07T04:28:26.980Z,172.00
2018-07-07T04:29:26.970Z,172.00
2018-07-07T04:30:26.954Z,180.00
2018-07-07T04:31:26.939Z,184.00
2018-07-07T04:32:26.928Z,184.00
2018-07-07T04:33:26.915Z,188.00
2018-07-07T04:34:26.901Z,192.00
2018-07-07T04:35:26.887Z,196.00
2018-07-07T04:36:26.877Z,200.00
2018-07-07T04:37:26.858Z,204.00
2018-07-07T04:38:26.845Z,204.00
2018-07-07T04:39:26.832Z,208.00
2018-07-07T04:41:26.806Z,216.00
2018-07-07T04:42:26.798Z,220.00
2018-07-07T04:43:26.781Z,220.00
2018-07-07T04:44:26.764Z,224.00
2018-07-07T04:45:26.750Z,228.00
2018-07-07T04:46:26.738Z,236.00
2018-07-07T04:47:26.734Z,236.00
2018-07-07T04:48:26.711Z,240.00
2018-07-07T04:49:26.698Z,240.00
2018-07-07T04:50:26.689Z,244.00
2018-07-07T04:51:26.676Z,244.00
2018-07-07T04:52:26.719Z,248.00
2018-07-07T04:53:26.645Z,248.00
2018-07-07T04:54:26.632Z,252.00
2018-07-07T04:55:26.618Z,256.00
2018-07-07T04:56:26.604Z,256.00
2018-07-07T04:57:26.629Z,260.00
2018-07-07T04:58:26.574Z,264.00
2018-07-07T04:59:26.623Z,268.00
2018-07-07T05:00:26.546Z,268.00
2018-07-07T05:01:26.536Z,272.00
2018-07-07T05:02:26.527Z,272.00
2018-07-07T05:03:26.514Z,280.00
2018-07-07T05:04:26.547Z,280.00
2018-07-07T05:05:26.482Z,288.00
2018-07-07T05:06:26.465Z,292.00
2018-07-07T05:07:26.604Z,292.00
2018-07-07T05:08:26.445Z,296.00
2018-07-07T05:09:26.582Z,296.00
2018-07-07T05:10:26.412Z,304.00
2018-07-07T05:11:26.412Z,304.00
2018-07-07T05:12:26.387Z,304.00
2018-07-07T05:13:26.377Z,312.00
2018-07-07T05:14:26.358Z,312.00
2018-07-07T05:15:26.439Z,316.00
2018-07-07T05:16:26.332Z,316.00
2018-07-07T05:17:26.329Z,320.00
2018-07-07T05:18:26.307Z,320.00
2018-07-07T05:19:26.295Z,324.00
2018-07-07T05:20:26.279Z,328.00
2018-07-07T05:21:26.272Z,328.00
2018-07-07T05:22:26.253Z,332.00
2018-07-07T05:23:26.241Z,340.00
2018-07-07T05:24:26.224Z,340.00
2018-07-07T05:25:26.261Z,344.00
2018-07-07T05:26:26.204Z,344.00
2018-07-07T05:27:26.237Z,348.00
2018-07-07T05:28:26.188Z,348.00
2018-07-07T05:29:26.158Z,352.00
2018-07-07T05:30:26.147Z,356.00
2018-07-07T05:31:26.138Z,360.00
2018-07-07T05:32:26.116Z,364.00
2018-07-07T05:33:26.108Z,364.00
2018-07-07T05:34:26.097Z,368.00
2018-07-07T05:35:26.077Z,372.00
2018-07-07T05:36:26.065Z,376.00
2018-07-07T05:37:26.053Z,376.00
2018-07-07T05:38:26.040Z,380.00
2018-07-07T05:39:26.027Z,384.00
2018-07-07T05:40:26.020Z,388.00
2018-07-07T05:41:25.999Z,392.00
2018-07-07T05:42:25.985Z,396.00
2018-07-07T05:43:25.972Z,404.00
2018-07-07T05:44:25.961Z,404.00
2018-07-07T05:45:25.951Z,408.00
2018-07-07T05:46:25.938Z,412.00
2018-07-07T05:47:25.927Z,412.00
2018-07-07T05:48:25.905Z,412.00
2018-07-07T05:49:25.897Z,412.00
2018-07-07T05:50:25.884Z,416.00
2018-07-07T05:51:25.868Z,420.00
2018-07-07T05:52:25.858Z,420.00
2018-07-07T05:53:25.840Z,424.00
2018-07-07T05:54:25.827Z,432.00
2018-07-07T05:55:25.816Z,432.00
2018-07-07T05:56:25.802Z,440.00
2018-07-07T05:57:25.804Z,448.00
2018-07-07T05:58:25.776Z,456.00
2018-07-07T05:59:25.761Z,460.00
2018-07-07T06:00:25.754Z,464.00
2018-07-07T06:01:25.736Z,472.00
2018-07-07T06:02:25.724Z,472.00
2018-07-07T06:03:25.709Z,480.00
2018-07-07T06:04:25.697Z,484.00
2018-07-07T06:05:25.682Z,484.00
2018-07-07T06:06:25.667Z,496.00
2018-07-07T06:07:25.656Z,500.00
2018-07-07T06:08:25.647Z,508.00
2018-07-07T06:09:25.627Z,516.00
2018-07-07T06:10:25.616Z,524.00
2018-07-07T06:11:25.609Z,536.00
2018-07-07T06:12:25.589Z,540.00
2018-07-07T06:13:25.576Z,552.00
2018-07-07T06:14:25.644Z,556.00
2018-07-07T06:15:25.548Z,560.00
2018-07-07T06:16:25.537Z,568.00
2018-07-07T06:17:25.526Z,576.00
2018-07-07T06:18:25.594Z,580.00
2018-07-07T06:19:25.517Z,588.00
2018-07-07T06:20:25.500Z,600.00
2018-07-07T06:21:25.470Z,608.00
2018-07-07T06:22:25.464Z,612.00
2018-07-07T06:23:25.445Z,620.00
2018-07-07T06:24:25.441Z,632.00
2018-07-07T06:25:25.417Z,640.00
2018-07-07T06:26:25.428Z,644.00
2018-07-07T06:27:25.398Z,656.00
2018-07-07T06:28:25.389Z,660.00
2018-07-07T06:29:25.374Z,668.00
2018-07-07T06:30:25.357Z,684.00
2018-07-07T06:31:25.340Z,692.00
2018-07-07T06:32:25.327Z,708.00
2018-07-07T06:33:25.315Z,708.00
2018-07-07T06:34:25.461Z,724.00
2018-07-07T06:35:25.289Z,728.00
2018-07-07T06:36:25.327Z,744.00
2018-07-07T06:37:25.313Z,752.00
2018-07-07T06:38:25.267Z,768.00
2018-07-07T06:39:25.252Z,780.00
2018-07-07T06:40:25.226Z,788.00
2018-07-07T06:41:25.212Z,788.00
2018-07-07T06:42:25.252Z,788.00
2018-07-07T06:43:25.187Z,788.00
2018-07-07T06:44:25.183Z,812.00
2018-07-07T06:45:25.163Z,816.00
2018-07-07T06:46:25.153Z,840.00
2018-07-07T06:47:25.137Z,852.00
2018-07-07T06:48:25.128Z,876.00
2018-07-07T06:49:25.119Z,896.00
2018-07-07T06:50:25.100Z,904.00
2018-07-07T06:51:25.097Z,912.00
2018-07-07T06:52:25.078Z,888.00
2018-07-07T06:53:25.068Z,856.00
2018-07-07T06:54:25.057Z,900.00
2018-07-07T06:55:25.040Z,916.00
2018-07-07T06:56:25.035Z,936.00
2018-07-07T06:57:25.019Z,968.00
2018-07-07T06:58:25.004Z,1000.00
2018-07-07T06:59:24.992Z,1032.00
2018-07-07T07:00:24.982Z,1012.00
2018-07-07T07:01:24.966Z,1028.00
2018-07-07T07:02:24.950Z,1076.00
2018-07-07T07:03:24.993Z,1072.00
2018-07-07T07:04:24.932Z,1084.00
2018-07-07T07:05:24.914Z,1108.00
2018-07-07T07:06:24.941Z,1108.00
2018-07-07T07:07:24.900Z,1072.00
2018-07-07T07:08:24.877Z,1080.00
2018-07-07T07:09:24.869Z,1016.00
2018-07-07T07:10:24.861Z,1124.00
2018-07-07T07:11:24.854Z,1180.00
2018-07-07T07:12:24.830Z,1184.00
2018-07-07T07:13:24.826Z,1140.00
2018-07-07T07:14:24.807Z,1184.00
2018-07-07T07:15:24.793Z,1192.00
2018-07-07T07:16:24.778Z,1196.00
2018-07-07T07:17:24.769Z,1220.00
2018-07-07T07:18:24.758Z,1128.00
2018-07-07T07:19:24.744Z,1112.00
2018-07-07T07:20:24.741Z,1124.00
2018-07-07T07:21:24.717Z,1136.00
2018-07-07T07:22:24.709Z,1244.00
2018-07-07T07:23:24.694Z,1280.00
2018-07-07T07:24:24.691Z,1228.00
2018-07-07T07:25:24.669Z,1220.00
2018-07-07T07:26:24.657Z,1356.00
2018-07-07T07:27:24.642Z,1196.00
2018-07-07T07:28:24.631Z,1196.00
2018-07-07T07:29:24.634Z,1208.00
2018-07-07T07:30:24.618Z,1396.00
2018-07-07T07:31:24.617Z,1336.00
2018-07-07T07:32:24.587Z,1076.00
2018-07-07T07:33:24.576Z,1064.00
2018-07-07T07:34:24.592Z,1232.00
2018-07-07T07:35:24.561Z,1252.00
2018-07-07T07:36:24.536Z,1232.00
2018-07-07T07:37:24.526Z,1308.00
2018-07-07T07:38:24.513Z,1356.00
2018-07-07T07:39:24.521Z,1208.00
2018-07-07T07:40:24.496Z,952.00
2018-07-07T07:41:24.486Z,1032.00
2018-07-07T07:42:24.467Z,1088.00
2018-07-07T07:43:24.471Z,1056.00
2018-07-07T07:44:24.452Z,964.00
2018-07-07T07:45:24.439Z,1024.00
2018-07-07T07:46:24.421Z,1684.00
2018-07-07T07:47:24.419Z,1632.00
2018-07-07T07:48:24.396Z,1628.00
2018-07-07T07:49:24.387Z,1640.00
2018-07-07T07:50:24.376Z,1624.00
2018-07-07T07:51:24.368Z,1616.00
2018-07-07T07:52:24.358Z,1628.00
2018-07-07T07:53:24.349Z,1624.00
2018-07-07T07:54:24.332Z,1640.00
2018-07-07T07:55:24.338Z,1648.00
2018-07-07T07:56:24.313Z,1656.00
2018-07-07T07:57:24.298Z,1664.00
2018-07-07T07:58:24.287Z,1652.00
2018-07-07T07:59:24.281Z,1664.00
2018-07-07T08:00:24.267Z,1692.00
2018-07-07T08:01:24.268Z,1684.00
2018-07-07T08:02:24.245Z,1704.00
2018-07-07T08:03:24.232Z,1708.00
2018-07-07T08:04:24.226Z,1716.00
2018-07-07T08:05:24.213Z,1732.00
2018-07-07T08:06:24.197Z,1748.00
2018-07-07T08:07:24.185Z,1768.00
2018-07-07T08:08:24.177Z,1776.00
2018-07-07T08:09:24.164Z,1784.00
2018-07-07T08:10:24.156Z,1796.00
2018-07-07T08:11:24.146Z,1812.00
2018-07-07T08:12:24.145Z,1836.00
2018-07-07T08:13:24.120Z,1844.00
2018-07-07T08:14:24.117Z,1844.00
2018-07-07T08:15:24.103Z,1880.00
2018-07-07T08:16:24.092Z,1896.00
2018-07-07T08:17:24.088Z,1912.00
2018-07-07T08:18:24.078Z,1916.00
2018-07-07T08:19:24.057Z,1924.00
2018-07-07T08:20:24.047Z,1932.00
2018-07-07T08:21:24.037Z,1924.00
2018-07-07T08:22:24.030Z,1908.00
2018-07-07T08:23:24.018Z,1912.00
2018-07-07T08:24:24.014Z,1956.00
2018-07-07T08:25:24.007Z,1964.00
2018-07-07T08:26:23.987Z,1996.00
2018-07-07T08:27:23.974Z,2004.00
2018-07-07T08:28:24.001Z,2008.00
2018-07-07T08:29:23.953Z,2036.00
2018-07-07T08:30:23.957Z,2036.00
2018-07-07T08:31:23.940Z,2056.00
2018-07-07T08:32:23.928Z,2072.00
2018-07-07T08:33:23.922Z,2092.00
2018-07-07T08:34:24.048Z,2096.00
2018-07-07T08:35:23.894Z,2100.00
2018-07-07T08:36:23.940Z,2124.00
2018-07-07T08:37:23.870Z,2108.00
2018-07-07T08:38:23.976Z,2112.00
2018-07-07T08:39:23.858Z,2120.00
2018-07-07T08:40:23.851Z,2164.00
2018-07-07T08:41:23.833Z,2172.00
2018-07-07T08:42:23.876Z,2168.00
2018-07-07T08:43:23.813Z,2180.00
2018-07-07T08:44:23.855Z,2188.00
2018-07-07T08:45:23.793Z,2196.00
2018-07-07T08:46:23.808Z,2216.00
2018-07-07T08:47:23.779Z,2224.00
2018-07-07T08:48:23.808Z,2228.00
2018-07-07T08:49:23.835Z,2232.00
2018-07-07T08:50:23.751Z,2228.00
2018-07-07T08:51:23.741Z,2236.00
2018-07-07T08:52:23.732Z,2280.00
2018-07-07T08:53:23.709Z,2256.00
2018-07-07T08:54:23.754Z,2100.00
2018-07-07T08:55:23.698Z,2280.00
2018-07-07T08:56:23.689Z,2276.00
2018-07-07T08:57:23.678Z,2316.00
2018-07-07T08:58:23.660Z,2328.00
2018-07-07T08:59:23.652Z,2260.00
2018-07-07T09:00:23.647Z,2332.00
2018-07-07T09:01:23.639Z,2408.00
2018-07-07T09:02:23.625Z,2392.00
2018-07-07T09:03:23.613Z,1616.00
2018-07-07T09:04:23.606Z,1036.00
2018-07-07T09:05:23.593Z,2460.00
2018-07-07T09:06:23.585Z,2364.00
2018-07-07T09:07:23.584Z,2400.00
2018-07-07T09:08:23.567Z,2492.00
2018-07-07T09:09:23.554Z,2460.00
2018-07-07T09:10:23.550Z,2388.00
2018-07-07T09:11:23.548Z,2216.00
2018-07-07T09:12:23.528Z,2376.00
2018-07-07T09:13:23.518Z,2448.00
2018-07-07T09:14:23.537Z,2500.00
2018-07-07T09:15:23.500Z,2516.00
2018-07-07T09:16:23.487Z,2516.00
2018-07-07T09:17:23.493Z,2516.00
2018-07-07T09:18:23.478Z,2476.00
2018-07-07T09:19:23.470Z,2420.00
2018-07-07T09:20:23.468Z,2500.00
2018-07-07T09:21:23.489Z,2464.00
2018-07-07T09:22:23.436Z,2008.00
2018-07-07T09:23:23.433Z,2492.00
2018-07-07T09:24:23.421Z,2484.00
2018-07-07T09:25:23.416Z,2436.00
2018-07-07T09:26:23.407Z,2524.00
2018-07-07T09:27:23.388Z,2492.00
2018-07-07T09:28:23.387Z,2536.00
2018-07-07T09:29:23.373Z,2536.00
2018-07-07T09:30:23.375Z,2532.00
2018-07-07T09:31:23.359Z,2520.00
2018-07-07T09:32:23.346Z,2556.00
2018-07-07T09:33:23.335Z,2532.00
2018-07-07T09:34:23.329Z,2536.00
2018-07-07T09:35:23.324Z,2500.00
2018-07-07T09:36:23.307Z,2528.00
2018-07-07T09:37:23.304Z,2576.00
2018-07-07T09:38:23.290Z,2592.00
2018-07-07T09:39:23.284Z,2604.00
2018-07-07T09:40:23.274Z,2644.00
2018-07-07T09:41:23.270Z,2624.00
2018-07-07T09:42:23.256Z,2604.00
2018-07-07T09:43:23.246Z,2612.00
2018-07-07T09:44:23.252Z,2628.00
2018-07-07T09:45:23.227Z,2588.00
2018-07-07T09:46:23.231Z,2628.00
2018-07-07T09:47:23.212Z,2628.00
2018-07-07T09:48:23.210Z,2652.00
2018-07-07T09:49:23.197Z,2660.00
2018-07-07T09:50:23.188Z,2648.00
2018-07-07T09:51:23.178Z,2672.00
2018-07-07T09:52:23.175Z,2648.00
2018-07-07T09:53:23.166Z,2680.00
2018-07-07T09:54:23.158Z,2684.00
2018-07-07T09:55:23.147Z,2672.00
2018-07-07T09:56:23.187Z,2728.00
2018-07-07T09:57:23.127Z,2644.00
2018-07-07T09:58:23.116Z,2716.00
2018-07-07T09:59:23.117Z,2684.00
2018-07-07T10:00:23.101Z,2712.00
2018-07-07T10:01:23.097Z,2724.00
2018-07-07T10:02:23.088Z,2724.00
2018-07-07T10:03:23.076Z,2772.00
2018-07-07T10:04:23.067Z,2796.00
2018-07-07T10:05:23.065Z,2920.00
2018-07-07T10:06:23.059Z,2932.00
2018-07-07T10:07:23.073Z,3208.00
2018-07-07T10:08:23.042Z,9672.00
2018-07-07T10:09:23.030Z,24576.00
2018-07-07T10:10:23.018Z,26880.00
2018-07-07T10:11:23.011Z,23104.00
2018-07-07T10:12:23.007Z,19616.00
2018-07-07T10:13:23.029Z,13888.00
2018-07-07T10:14:22.992Z,8488.00
2018-07-07T10:15:22.983Z,6728.00
2018-07-07T10:16:22.979Z,6144.00
2018-07-07T10:17:22.968Z,5832.00
2018-07-07T10:18:22.971Z,5584.00
2018-07-07T10:19:22.959Z,5404.00
2018-07-07T10:20:22.998Z,4920.00
2018-07-07T10:21:22.936Z,5040.00
2018-07-07T10:22:22.970Z,4916.00
2018-07-07T10:23:22.923Z,4916.00
2018-07-07T10:24:23.015Z,4804.00
2018-07-07T10:25:22.905Z,4776.00
2018-07-07T10:26:22.997Z,4588.00
2018-07-07T10:27:22.894Z,4596.00
2018-07-07T10:28:22.886Z,4492.00
2018-07-07T10:29:22.887Z,4416.00
2018-07-07T10:30:22.875Z,4424.00
2018-07-07T10:31:22.868Z,4392.00
2018-07-07T10:32:22.868Z,4396.00
2018-07-07T10:33:22.856Z,4320.00
2018-07-07T10:34:22.849Z,4256.00
2018-07-07T10:35:22.847Z,4284.00
2018-07-07T10:36:22.840Z,4192.00
2018-07-07T10:37:22.837Z,4128.00
2018-07-07T10:38:22.822Z,4088.00
2018-07-07T10:39:22.816Z,4020.00
2018-07-07T10:40:22.807Z,3932.00
2018-07-07T10:41:22.804Z,3612.00
2018-07-07T10:42:22.795Z,3772.00
2018-07-07T10:43:22.788Z,3484.00
2018-07-07T10:44:22.782Z,3460.00
2018-07-07T10:45:22.861Z,3548.00
2018-07-07T10:46:22.764Z,3216.00
2018-07-07T10:47:22.797Z,3284.00
2018-07-07T10:48:22.768Z,3268.00
2018-07-07T10:49:22.748Z,3148.00
2018-07-07T10:50:22.737Z,3132.00
2018-07-07T10:51:22.737Z,2984.00
2018-07-07T10:52:22.724Z,2924.00
2018-07-07T10:53:22.723Z,2976.00
2018-07-07T10:54:22.710Z,2892.00
2018-07-07T10:55:22.710Z,2956.00
2018-07-07T10:56:22.694Z,2884.00
2018-07-07T10:57:22.749Z,2904.00
2018-07-07T10:58:22.687Z,2884.00
2018-07-07T10:59:22.677Z,2880.00
2018-07-07T11:00:22.667Z,2864.00
2018-07-07T11:01:22.712Z,2904.00
2018-07-07T11:02:22.659Z,2916.00
2018-07-07T11:03:22.689Z,2808.00
2018-07-07T11:04:22.760Z,2840.00
2018-07-07T11:05:22.637Z,2788.00
2018-07-07T11:06:22.628Z,2872.00
2018-07-07T11:07:22.674Z,2828.00
2018-07-07T11:08:22.619Z,2928.00
2018-07-07T11:09:22.608Z,2924.00
2018-07-07T11:10:22.602Z,2864.00
2018-07-07T11:11:22.592Z,2924.00
2018-07-07T11:12:22.592Z,2912.00
2018-07-07T11:13:22.576Z,2920.00
2018-07-07T11:14:22.573Z,2936.00
2018-07-07T11:15:22.572Z,2968.00
2018-07-07T11:16:22.563Z,3008.00
2018-07-07T11:17:22.548Z,2832.00
2018-07-07T11:18:22.543Z,2856.00
2018-07-07T11:19:22.538Z,2936.00
2018-07-07T11:20:22.541Z,3008.00
2018-07-07T11:21:22.530Z,2976.00
2018-07-07T11:22:22.521Z,2904.00
2018-07-07T11:23:22.519Z,2924.00
2018-07-07T11:24:22.499Z,2908.00
2018-07-07T11:25:22.496Z,2912.00
2018-07-07T11:26:22.489Z,2964.00
2018-07-07T11:27:22.481Z,3028.00
2018-07-07T11:28:22.468Z,2984.00
2018-07-07T11:29:22.476Z,3000.00
2018-07-07T11:30:22.471Z,2972.00
2018-07-07T11:31:22.454Z,2976.00
2018-07-07T11:32:22.449Z,2920.00
2018-07-07T11:33:22.439Z,2948.00
2018-07-07T11:34:22.433Z,2988.00
2018-07-07T11:35:22.425Z,2984.00
2018-07-07T11:36:22.487Z,2976.00
2018-07-07T11:37:22.405Z,3024.00
2018-07-07T11:38:22.409Z,2820.00
2018-07-07T11:39:22.393Z,2888.00
2018-07-07T11:40:22.403Z,3036.00
2018-07-07T11:41:22.380Z,3076.00
2018-07-07T11:42:22.457Z,3084.00
2018-07-07T11:43:22.375Z,3060.00
2018-07-07T11:44:22.361Z,3004.00
2018-07-07T11:45:22.347Z,3112.00
2018-07-07T11:46:22.349Z,3036.00
2018-07-07T11:47:22.340Z,3144.00
2018-07-07T11:48:22.338Z,3068.00
2018-07-07T11:49:22.335Z,3024.00
2018-07-07T11:50:22.409Z,2956.00
2018-07-07T11:51:22.326Z,2708.00
2018-07-07T11:52:22.303Z,2996.00
2018-07-07T11:53:22.300Z,3016.00
2018-07-07T11:54:22.294Z,3000.00
2018-07-07T11:55:22.290Z,3024.00
2018-07-07T11:56:22.282Z,3036.00
2018-07-07T11:57:22.365Z,3064.00
2018-07-07T11:58:22.270Z,2988.00
2018-07-07T11:59:22.256Z,2972.00
2018-07-07T12:00:22.246Z,3008.00
2018-07-07T12:01:22.237Z,2968.00
2018-07-07T12:02:22.237Z,2996.00
2018-07-07T12:03:22.225Z,2972.00
2018-07-07T12:04:22.263Z,2932.00
2018-07-07T12:05:22.220Z,3052.00
2018-07-07T12:06:22.257Z,2980.00
2018-07-07T12:07:22.198Z,2928.00
2018-07-07T12:08:22.253Z,2952.00
2018-07-07T12:09:22.184Z,2868.00
2018-07-07T12:10:22.192Z,2952.00
2018-07-07T12:11:22.305Z,2888.00
2018-07-07T12:12:22.167Z,2988.00
2018-07-07T12:13:22.158Z,2820.00
2018-07-07T12:14:22.158Z,2856.00
2018-07-07T12:15:22.150Z,2796.00
2018-07-07T12:16:22.144Z,2828.00
2018-07-07T12:17:22.208Z,2884.00
2018-07-07T12:18:22.128Z,2908.00
2018-07-07T12:19:22.126Z,2968.00
2018-07-07T12:20:22.116Z,2768.00
2018-07-07T12:21:22.106Z,2736.00
2018-07-07T12:22:22.099Z,2872.00
2018-07-07T12:23:22.098Z,2544.00
2018-07-07T12:24:22.084Z,2604.00
2018-07-07T12:25:22.084Z,2804.00
2018-07-07T12:26:22.078Z,2964.00
2018-07-07T12:27:22.067Z,2980.00
2018-07-07T12:28:22.057Z,2428.00
2018-07-07T12:29:22.054Z,2964.00
2018-07-07T12:30:22.049Z,2980.00
2018-07-07T12:31:22.068Z,2940.00
2018-07-07T12:32:22.034Z,2984.00